sensor_id;sensor_type;location;lat;lon;timestamp;temperature;humidity
78694;SHT31;68029;51.978;5.646;2023-07-16T12:33:36;24.9;52.8
78694;SHT31;68029;51.978;5.646;2023-07-16T12:36:05;25.0;52.4
78694;SHT31;68029;51.978;5.646;2023-07-16T12:38:34;25.1;52.9
78694;SHT31;68029;51.978;5.646;2023-07-16T12:41:02;25.3;50.1
78694;SHT31;68029;51.978;5.646;2023-07-16T12:43:31;25.5;48.8
78694;SHT31;68029;51.978;5.646;2023-07-16T12:46:01;25.6;47.6
78694;SHT31;68029;51.978;5.646;2023-07-16T12:48:31;25.7;46.9
78694;SHT31;68029;51.978;5.646;2023-07-16T12:51:00;25.8;46.5
78694;SHT31;68029;51.978;5.646;2023-07-16T12:53:28;25.7;47.5
78694;SHT31;68029;51.978;5.646;2023-07-16T12:55:57;25.7;47.6
78694;SHT31;68029;51.978;5.646;2023-07-16T12:58:25;25.7;47.1
78694;SHT31;68029;51.978;5.646;2023-07-16T13:00:54;25.6;45.8
78694;SHT31;68029;51.978;5.646;2023-07-16T13:03:22;25.5;45.6
78694;SHT31;68029;51.978;5.646;2023-07-16T13:05:51;25.4;45.4
78694;SHT31;68029;51.978;5.646;2023-07-16T15:52:53;25.2;45.7
78694;SHT31;68029;51.978;5.646;2023-07-16T15:55:22;25.0;46.3
78694;SHT31;68029;51.978;5.646;2023-07-16T15:57:53;24.9;45.9
78694;SHT31;68029;51.978;5.646;2023-07-16T16:00:25;24.8;46.4
78694;SHT31;68029;51.978;5.646;2023-07-16T16:09:32;24.8;47.0
78694;SHT31;68029;51.978;5.646;2023-07-16T16:12:00;24.7;46.8
78694;SHT31;68029;51.978;5.646;2023-07-16T16:14:29;24.7;46.9
78694;SHT31;68029;51.978;5.646;2023-07-16T16:16:58;24.6;47.4
78694;SHT31;68029;51.978;5.646;2023-07-16T16:19:27;24.5;47.4
78694;SHT31;68029;51.978;5.646;2023-07-16T16:21:56;24.5;47.7
78694;SHT31;68029;51.978;5.646;2023-07-16T16:24:24;24.4;47.7
78694;SHT31;68029;51.978;5.646;2023-07-16T16:26:53;24.4;47.3
78694;SHT31;68029;51.978;5.646;2023-07-16T16:29:22;24.3;47.3
78694;SHT31;68029;51.978;5.646;2023-07-16T16:31:51;24.2;46.7
78694;SHT31;68029;51.978;5.646;2023-07-16T16:34:21;24.1;45.9
78694;SHT31;68029;51.978;5.646;2023-07-16T16:36:50;24.1;46.7
78694;SHT31;68029;51.978;5.646;2023-07-16T16:39:21;24.0;46.7
78694;SHT31;68029;51.978;5.646;2023-07-16T16:41:50;24.0;47.1
78694;SHT31;68029;51.978;5.646;2023-07-16T16:44:18;24.0;46.6
78694;SHT31;68029;51.978;5.646;2023-07-16T16:46:47;24.0;46.8
78694;SHT31;68029;51.978;5.646;2023-07-16T16:49:15;23.9;46.5
78694;SHT31;68029;51.978;5.646;2023-07-16T16:51:44;23.9;46.8
78694;SHT31;68029;51.978;5.646;2023-07-16T16:54:12;23.9;47.0
78694;SHT31;68029;51.978;5.646;2023-07-16T16:56:41;23.8;48.6
78694;SHT31;68029;51.978;5.646;2023-07-16T16:59:11;23.8;47.8
78694;SHT31;68029;51.978;5.646;2023-07-16T17:01:39;23.8;47.6
78694;SHT31;68029;51.978;5.646;2023-07-16T17:04:08;23.8;48.5
78694;SHT31;68029;51.978;5.646;2023-07-16T17:06:37;23.8;47.9
78694;SHT31;68029;51.978;5.646;2023-07-16T17:11:53;24.1;46.5
78694;SHT31;68029;51.978;5.646;2023-07-16T17:14:22;24.1;46.7
78694;SHT31;68029;51.978;5.646;2023-07-16T17:16:51;24.1;46.7
78694;SHT31;68029;51.978;5.646;2023-07-16T17:19:20;24.1;46.4
78694;SHT31;68029;51.978;5.646;2023-07-16T17:21:48;24.1;46.7
78694;SHT31;68029;51.978;5.646;2023-07-16T17:24:17;24.1;46.8
78694;SHT31;68029;51.978;5.646;2023-07-16T17:26:46;24.1;46.6
78694;SHT31;68029;51.978;5.646;2023-07-16T17:29:14;24.1;46.3
78694;SHT31;68029;51.978;5.646;2023-07-16T17:31:43;24.1;47.1
78694;SHT31;68029;51.978;5.646;2023-07-16T17:34:11;24.1;47.4
78694;SHT31;68029;51.978;5.646;2023-07-16T17:36:41;24.1;46.8
78694;SHT31;68029;51.978;5.646;2023-07-16T17:39:09;24.1;46.8
78694;SHT31;68029;51.978;5.646;2023-07-16T17:41:39;24.1;47.0
78694;SHT31;68029;51.978;5.646;2023-07-16T17:44:08;24.0;47.7
78694;SHT31;68029;51.978;5.646;2023-07-16T17:46:36;24.0;47.6
78694;SHT31;68029;51.978;5.646;2023-07-16T17:49:07;24.0;47.2
78694;SHT31;68029;51.978;5.646;2023-07-16T17:51:35;24.0;46.9
78694;SHT31;68029;51.978;5.646;2023-07-16T19:19:54;24.1;45.0
78694;SHT31;68029;51.978;5.646;2023-07-16T19:22:25;23.8;45.3
78694;SHT31;68029;51.978;5.646;2023-07-16T19:24:55;23.7;45.3
78694;SHT31;68029;51.978;5.646;2023-07-16T19:27:24;23.5;45.8
78694;SHT31;68029;51.978;5.646;2023-07-16T19:29:53;23.5;46.1
78694;SHT31;68029;51.978;5.646;2023-07-16T19:32:21;23.4;46.7
78694;SHT31;68029;51.978;5.646;2023-07-16T19:34:50;23.3;47.7
78694;SHT31;68029;51.978;5.646;2023-07-16T19:37:20;23.3;47.6
78694;SHT31;68029;51.978;5.646;2023-07-16T19:39:49;23.3;47.0
78694;SHT31;68029;51.978;5.646;2023-07-16T19:42:17;23.2;47.3
78694;SHT31;68029;51.978;5.646;2023-07-16T19:44:46;23.2;46.8
78694;SHT31;68029;51.978;5.646;2023-07-16T19:47:17;23.1;47.0
78694;SHT31;68029;51.978;5.646;2023-07-16T19:49:45;23.1;47.3
78694;SHT31;68029;51.978;5.646;2023-07-16T19:52:14;23.1;47.9
78694;SHT31;68029;51.978;5.646;2023-07-16T19:54:43;23.0;47.3
78694;SHT31;68029;51.978;5.646;2023-07-16T19:57:11;23.0;47.7
78694;SHT31;68029;51.978;5.646;2023-07-16T19:59:40;23.0;47.4
78694;SHT31;68029;51.978;5.646;2023-07-16T20:02:10;23.0;47.9
78694;SHT31;68029;51.978;5.646;2023-07-16T20:04:39;23.0;47.9
78694;SHT31;68029;51.978;5.646;2023-07-16T20:07:07;23.0;47.4
78694;SHT31;68029;51.978;5.646;2023-07-16T20:09:36;22.9;47.2
78694;SHT31;68029;51.978;5.646;2023-07-16T20:12:08;22.9;47.2
78694;SHT31;68029;51.978;5.646;2023-07-16T20:14:36;22.8;47.8
78694;SHT31;68029;51.978;5.646;2023-07-16T20:17:06;22.8;47.6
78694;SHT31;68029;51.978;5.646;2023-07-16T20:19:35;22.7;47.8
78694;SHT31;68029;51.978;5.646;2023-07-16T20:22:04;22.7;47.6
78694;SHT31;68029;51.978;5.646;2023-07-16T20:24:33;22.6;47.6
78694;SHT31;68029;51.978;5.646;2023-07-16T20:27:02;22.6;47.9
78694;SHT31;68029;51.978;5.646;2023-07-16T20:29:31;22.6;48.1
78694;SHT31;68029;51.978;5.646;2023-07-16T20:32:00;22.5;48.3
78694;SHT31;68029;51.978;5.646;2023-07-16T20:34:28;22.5;48.3
78694;SHT31;68029;51.978;5.646;2023-07-16T20:36:58;22.5;48.0
78694;SHT31;68029;51.978;5.646;2023-07-16T20:39:27;22.5;48.6
78694;SHT31;68029;51.978;5.646;2023-07-16T20:41:56;22.4;48.5
78694;SHT31;68029;51.978;5.646;2023-07-16T20:44:25;22.4;48.6
78694;SHT31;68029;51.978;5.646;2023-07-16T20:46:53;22.4;49.2
78694;SHT31;68029;51.978;5.646;2023-07-16T20:49:22;22.3;49.3
78694;SHT31;68029;51.978;5.646;2023-07-16T20:51:50;22.3;49.2
78694;SHT31;68029;51.978;5.646;2023-07-16T20:54:19;22.3;50.3
78694;SHT31;68029;51.978;5.646;2023-07-16T20:56:48;22.2;49.2
78694;SHT31;68029;51.978;5.646;2023-07-16T20:59:16;22.2;49.0
78694;SHT31;68029;51.978;5.646;2023-07-16T21:01:45;22.2;49.0
78694;SHT31;68029;51.978;5.646;2023-07-16T21:04:13;22.1;49.1
78694;SHT31;68029;51.978;5.646;2023-07-16T21:06:42;22.1;49.5
78694;SHT31;68029;51.978;5.646;2023-07-16T21:09:10;22.1;49.8
78694;SHT31;68029;51.978;5.646;2023-07-16T21:11:39;22.0;49.8
78694;SHT31;68029;51.978;5.646;2023-07-16T21:14:08;22.0;50.2
78694;SHT31;68029;51.978;5.646;2023-07-16T21:16:37;22.0;50.8
78694;SHT31;68029;51.978;5.646;2023-07-16T21:19:05;21.9;51.0
78694;SHT31;68029;51.978;5.646;2023-07-16T21:21:34;21.9;50.5
78694;SHT31;68029;51.978;5.646;2023-07-16T21:24:02;21.9;50.4
78694;SHT31;68029;51.978;5.646;2023-07-16T21:26:31;21.9;50.8
78694;SHT31;68029;51.978;5.646;2023-07-16T21:28:59;21.8;51.0
78694;SHT31;68029;51.978;5.646;2023-07-16T21:31:29;21.8;51.3
78694;SHT31;68029;51.978;5.646;2023-07-16T21:33:58;21.8;51.5
78694;SHT31;68029;51.978;5.646;2023-07-16T21:36:26;21.8;51.2
78694;SHT31;68029;51.978;5.646;2023-07-16T21:38:55;21.7;51.4
78694;SHT31;68029;51.978;5.646;2023-07-16T21:41:23;21.7;51.5
78694;SHT31;68029;51.978;5.646;2023-07-16T21:43:52;21.7;51.8
78694;SHT31;68029;51.978;5.646;2023-07-16T21:46:20;21.6;51.8
78694;SHT31;68029;51.978;5.646;2023-07-16T21:48:49;21.6;51.7
78694;SHT31;68029;51.978;5.646;2023-07-16T21:51:18;21.6;51.9
78694;SHT31;68029;51.978;5.646;2023-07-16T21:53:46;21.5;52.0
78694;SHT31;68029;51.978;5.646;2023-07-16T21:56:14;21.5;52.2
78694;SHT31;68029;51.978;5.646;2023-07-16T21:58:43;21.4;52.4
78694;SHT31;68029;51.978;5.646;2023-07-16T22:01:12;21.4;52.5
78694;SHT31;68029;51.978;5.646;2023-07-16T22:03:42;21.4;52.8
78694;SHT31;68029;51.978;5.646;2023-07-16T22:06:11;21.3;52.7
78694;SHT31;68029;51.978;5.646;2023-07-16T22:08:39;21.3;52.7
78694;SHT31;68029;51.978;5.646;2023-07-16T22:11:08;21.2;52.7
78694;SHT31;68029;51.978;5.646;2023-07-16T22:13:37;21.2;53.3
78694;SHT31;68029;51.978;5.646;2023-07-16T22:16:06;21.1;53.0
78694;SHT31;68029;51.978;5.646;2023-07-16T22:18:34;21.1;53.1
78694;SHT31;68029;51.978;5.646;2023-07-16T22:21:04;21.1;53.4
78694;SHT31;68029;51.978;5.646;2023-07-16T22:23:32;21.0;53.5
78694;SHT31;68029;51.978;5.646;2023-07-16T22:26:02;21.0;53.8
78694;SHT31;68029;51.978;5.646;2023-07-16T22:28:32;21.0;53.5
78694;SHT31;68029;51.978;5.646;2023-07-16T22:31:00;20.9;53.7
78694;SHT31;68029;51.978;5.646;2023-07-16T22:33:29;20.9;53.7
78694;SHT31;68029;51.978;5.646;2023-07-16T22:35:58;20.9;54.1
78694;SHT31;68029;51.978;5.646;2023-07-16T22:38:27;20.9;54.0
78694;SHT31;68029;51.978;5.646;2023-07-16T22:40:56;20.9;54.2
78694;SHT31;68029;51.978;5.646;2023-07-16T22:43:25;20.9;54.5
78694;SHT31;68029;51.978;5.646;2023-07-16T22:45:54;20.9;54.4
78694;SHT31;68029;51.978;5.646;2023-07-16T22:48:22;20.9;54.2
78694;SHT31;68029;51.978;5.646;2023-07-16T22:50:54;20.9;54.0
78694;SHT31;68029;51.978;5.646;2023-07-16T22:53:22;20.9;54.2
78694;SHT31;68029;51.978;5.646;2023-07-16T22:55:51;20.9;54.4
78694;SHT31;68029;51.978;5.646;2023-07-16T22:58:19;20.9;54.2
78694;SHT31;68029;51.978;5.646;2023-07-16T23:00:48;20.9;54.1
78694;SHT31;68029;51.978;5.646;2023-07-16T23:03:17;20.8;54.5
78694;SHT31;68029;51.978;5.646;2023-07-16T23:05:47;20.8;54.6
78694;SHT31;68029;51.978;5.646;2023-07-16T23:08:16;20.8;54.5
78694;SHT31;68029;51.978;5.646;2023-07-16T23:10:44;20.8;54.5
78694;SHT31;68029;51.978;5.646;2023-07-16T23:13:13;20.8;54.8
78694;SHT31;68029;51.978;5.646;2023-07-16T23:15:41;20.8;54.8
78694;SHT31;68029;51.978;5.646;2023-07-16T23:18:10;20.7;55.2
78694;SHT31;68029;51.978;5.646;2023-07-16T23:20:38;20.7;55.2
78694;SHT31;68029;51.978;5.646;2023-07-16T23:23:07;20.7;55.2
78694;SHT31;68029;51.978;5.646;2023-07-16T23:25:38;20.7;55.4
78694;SHT31;68029;51.978;5.646;2023-07-16T23:28:07;20.7;55.8
78694;SHT31;68029;51.978;5.646;2023-07-16T23:30:36;20.7;55.9
78694;SHT31;68029;51.978;5.646;2023-07-16T23:33:05;20.6;55.8
78694;SHT31;68029;51.978;5.646;2023-07-16T23:35:34;20.6;56.2
78694;SHT31;68029;51.978;5.646;2023-07-16T23:38:02;20.6;56.3
78694;SHT31;68029;51.978;5.646;2023-07-16T23:40:31;20.5;56.4
78694;SHT31;68029;51.978;5.646;2023-07-16T23:43:00;20.5;56.7
78694;SHT31;68029;51.978;5.646;2023-07-16T23:45:29;20.4;56.9
78694;SHT31;68029;51.978;5.646;2023-07-16T23:47:58;20.3;57.4
78694;SHT31;68029;51.978;5.646;2023-07-16T23:50:26;20.3;57.7
78694;SHT31;68029;51.978;5.646;2023-07-16T23:52:55;20.2;58.1
78694;SHT31;68029;51.978;5.646;2023-07-16T23:55:24;20.2;58.1
78694;SHT31;68029;51.978;5.646;2023-07-16T23:57:52;20.2;58.5
